sensor_id;sensor_type;location;lat;lon;timestamp;pressure;altitude;pressure_sealevel;temperature;humidity
19096;BME280;9680;52.520;13.332;2022-10-23T00:01:17;101387.06;;;13.65;94.81
19096;BME280;9680;52.520;13.332;2022-10-23T00:03:43;101386.22;;;13.64;94.69
19096;BME280;9680;52.520;13.332;2022-10-23T00:06:10;101387.19;;;13.62;94.76
19096;BME280;9680;52.520;13.332;2022-10-23T00:08:36;101395.97;;;13.61;94.93
19096;BME280;9680;52.520;13.332;2022-10-23T00:11:14;101400.47;;;13.57;95.17
19096;BME280;9680;52.520;13.332;2022-10-23T00:13:40;101394.50;;;13.53;95.08
19096;BME280;9680;52.520;13.332;2022-10-23T00:16:06;101396.25;;;13.53;95.53
19096;BME280;9680;52.520;13.332;2022-10-23T00:18:31;101396.38;;;13.50;95.43
19096;BME280;9680;52.520;13.332;2022-10-23T00:20:57;101405.16;;;13.49;95.53
19096;BME280;9680;52.520;13.332;2022-10-23T00:23:23;101411.28;;;13.48;95.79
19096;BME280;9680;52.520;13.332;2022-10-23T00:25:49;101412.22;;;13.47;95.73
19096;BME280;9680;52.520;13.332;2022-10-23T00:28:14;101406.97;;;13.47;95.96
19096;BME280;9680;52.520;13.332;2022-10-23T00:30:40;101413.00;;;13.49;96.00
19096;BME280;9680;52.520;13.332;2022-10-23T00:33:05;101417.19;;;13.53;96.43
19096;BME280;9680;52.520;13.332;2022-10-23T00:35:31;101420.47;;;13.58;96.30
19096;BME280;9680;52.520;13.332;2022-10-23T00:37:56;101415.88;;;13.65;96.11
19096;BME280;9680;52.520;13.332;2022-10-23T00:40:22;101412.09;;;13.72;96.00
19096;BME280;9680;52.520;13.332;2022-10-23T00:42:47;101414.41;;;13.80;95.28
19096;BME280;9680;52.520;13.332;2022-10-23T00:45:22;101413.28;;;13.86;95.18
19096;BME280;9680;52.520;13.332;2022-10-23T00:47:48;101414.81;;;13.91;95.00
19096;BME280;9680;52.520;13.332;2022-10-23T00:50:15;101418.03;;;13.98;94.45
19096;BME280;9680;52.520;13.332;2022-10-23T00:52:51;101426.56;;;14.03;93.99
19096;BME280;9680;52.520;13.332;2022-10-23T00:55:20;101414.16;;;14.07;93.73
19096;BME280;9680;52.520;13.332;2022-10-23T00:57:48;101412.19;;;14.12;93.49
19096;BME280;9680;52.520;13.332;2022-10-23T01:00:24;101415.56;;;14.16;92.93
19096;BME280;9680;52.520;13.332;2022-10-23T01:02:50;101418.09;;;14.17;92.66
19096;BME280;9680;52.520;13.332;2022-10-23T01:05:18;101419.81;;;14.18;92.31
19096;BME280;9680;52.520;13.332;2022-10-23T01:07:53;101414.50;;;14.20;92.03
19096;BME280;9680;52.520;13.332;2022-10-23T01:13:07;101417.97;;;14.20;91.48
19096;BME280;9680;52.520;13.332;2022-10-23T01:15:43;101417.03;;;14.21;91.21
19096;BME280;9680;52.520;13.332;2022-10-23T01:20:50;101421.72;;;14.15;91.21
19096;BME280;9680;52.520;13.332;2022-10-23T01:23:31;101410.56;;;14.09;91.20
19096;BME280;9680;52.520;13.332;2022-10-23T01:31:29;101420.56;;;14.00;91.38
19096;BME280;9680;52.520;13.332;2022-10-23T01:34:01;101419.88;;;13.96;91.30
19096;BME280;9680;52.520;13.332;2022-10-23T01:36:31;101425.25;;;13.93;91.56
19096;BME280;9680;52.520;13.332;2022-10-23T01:39:06;101427.91;;;13.91;91.68
19096;BME280;9680;52.520;13.332;2022-10-23T01:41:43;101427.91;;;13.91;91.25
19096;BME280;9680;52.520;13.332;2022-10-23T01:46:47;101427.91;;;13.91;91.68
19096;BME280;9680;52.520;13.332;2022-10-23T01:49:16;101431.25;;;13.95;91.80
19096;BME280;9680;52.520;13.332;2022-10-23T01:51:45;101434.72;;;13.95;91.56
19096;BME280;9680;52.520;13.332;2022-10-23T01:54:14;101424.13;;;13.98;91.32
19096;BME280;9680;52.520;13.332;2022-10-23T01:56:45;101423.28;;;13.98;90.72
19096;BME280;9680;52.520;13.332;2022-10-23T01:59:17;101425.34;;;13.90;90.72
19096;BME280;9680;52.520;13.332;2022-10-23T02:01:48;101419.56;;;13.81;90.48
19096;BME280;9680;52.520;13.332;2022-10-23T02:04:24;101418.84;;;13.78;91.34
19096;BME280;9680;52.520;13.332;2022-10-23T02:06:51;101422.38;;;13.77;91.03
19096;BME280;9680;52.520;13.332;2022-10-23T02:09:17;101418.09;;;13.74;91.23
19096;BME280;9680;52.520;13.332;2022-10-23T02:11:54;101412.81;;;13.76;91.75
19096;BME280;9680;52.520;13.332;2022-10-23T02:14:50;101411.66;;;13.83;91.82
19096;BME280;9680;52.520;13.332;2022-10-23T02:20:27;101417.16;;;13.97;91.52
19096;BME280;9680;52.520;13.332;2022-10-23T02:23:00;101416.00;;;14.05;91.11
19096;BME280;9680;52.520;13.332;2022-10-23T02:25:46;101413.19;;;14.09;90.85
19096;BME280;9680;52.520;13.332;2022-10-23T02:28:15;101417.41;;;14.13;90.26
19096;BME280;9680;52.520;13.332;2022-10-23T02:30:46;101413.91;;;14.13;89.77
19096;BME280;9680;52.520;13.332;2022-10-23T02:33:15;101412.47;;;14.06;89.25
19096;BME280;9680;52.520;13.332;2022-10-23T02:35:42;101404.06;;;13.97;89.66
19096;BME280;9680;52.520;13.332;2022-10-23T02:38:48;101410.50;;;13.90;89.99
19096;BME280;9680;52.520;13.332;2022-10-23T02:44:09;101410.88;;;13.81;90.25
19096;BME280;9680;52.520;13.332;2022-10-23T02:58:08;101410.09;;;13.57;90.87
19096;BME280;9680;52.520;13.332;2022-10-23T03:00:45;101413.66;;;13.54;90.97
19096;BME280;9680;52.520;13.332;2022-10-23T03:03:28;101407.88;;;13.46;90.83
19096;BME280;9680;52.520;13.332;2022-10-23T03:05:55;101403.78;;;13.38;91.08
19096;BME280;9680;52.520;13.332;2022-10-23T03:08:21;101401.53;;;13.29;91.33
19096;BME280;9680;52.520;13.332;2022-10-23T03:10:46;101407.00;;;13.23;92.02
19096;BME280;9680;52.520;13.332;2022-10-23T03:13:12;101408.69;;;13.24;92.28
19096;BME280;9680;52.520;13.332;2022-10-23T03:15:40;101408.69;;;13.24;92.44
19096;BME280;9680;52.520;13.332;2022-10-23T03:18:10;101407.97;;;13.20;92.27
19096;BME280;9680;52.520;13.332;2022-10-23T03:20:35;101409.72;;;13.20;92.43
19096;BME280;9680;52.520;13.332;2022-10-23T03:23:01;101408.81;;;13.21;92.69
19096;BME280;9680;52.520;13.332;2022-10-23T03:25:26;101414.97;;;13.20;92.49
19096;BME280;9680;52.520;13.332;2022-10-23T03:27:56;101403.72;;;13.18;92.58
19096;BME280;9680;52.520;13.332;2022-10-23T03:30:22;101408.97;;;13.16;92.40
19096;BME280;9680;52.520;13.332;2022-10-23T03:32:52;101413.50;;;13.13;92.57
19096;BME280;9680;52.520;13.332;2022-10-23T03:35:17;101410.09;;;13.10;92.60
19096;BME280;9680;52.520;13.332;2022-10-23T03:37:44;101406.69;;;13.08;92.75
19096;BME280;9680;52.520;13.332;2022-10-23T03:40:09;101405.03;;;13.06;92.73
19096;BME280;9680;52.520;13.332;2022-10-23T03:42:35;101406.91;;;13.02;92.98
19096;BME280;9680;52.520;13.332;2022-10-23T03:45:01;101415.72;;;13.00;92.86
19096;BME280;9680;52.520;13.332;2022-10-23T03:47:26;101414.09;;;12.97;92.76
19096;BME280;9680;52.520;13.332;2022-10-23T03:49:55;101417.66;;;12.94;93.00
19096;BME280;9680;52.520;13.332;2022-10-23T03:52:21;101416.91;;;12.91;92.82
19096;BME280;9680;52.520;13.332;2022-10-23T03:54:49;101418.78;;;12.87;93.20
19096;BME280;9680;52.520;13.332;2022-10-23T03:57:15;101417.25;;;12.81;92.90
19096;BME280;9680;52.520;13.332;2022-10-23T03:59:41;101421.78;;;12.76;93.20
19096;BME280;9680;52.520;13.332;2022-10-23T04:02:06;101421.91;;;12.73;93.85
19096;BME280;9680;52.520;13.332;2022-10-23T04:04:32;101421.97;;;12.72;94.10
19096;BME280;9680;52.520;13.332;2022-10-23T04:06:58;101421.22;;;12.68;94.25
19096;BME280;9680;52.520;13.332;2022-10-23T04:09:23;101424.81;;;12.65;93.92
19096;BME280;9680;52.520;13.332;2022-10-23T04:11:49;101424.91;;;12.62;94.21
19096;BME280;9680;52.520;13.332;2022-10-23T04:14:15;101419.81;;;12.59;94.38
19096;BME280;9680;52.520;13.332;2022-10-23T04:16:40;101425.09;;;12.56;94.53
19096;BME280;9680;52.520;13.332;2022-10-23T04:19:06;101413.06;;;12.52;94.76
19096;BME280;9680;52.520;13.332;2022-10-23T04:21:32;101419.25;;;12.49;94.76
19096;BME280;9680;52.520;13.332;2022-10-23T04:23:57;101416.69;;;12.48;94.76
19096;BME280;9680;52.520;13.332;2022-10-23T04:26:23;101420.28;;;12.45;94.85
19096;BME280;9680;52.520;13.332;2022-10-23T04:28:50;101411.69;;;12.42;94.78
19096;BME280;9680;52.520;13.332;2022-10-23T04:31:15;101412.59;;;12.41;94.88
19096;BME280;9680;52.520;13.332;2022-10-23T04:33:41;101411.84;;;12.37;95.26
19096;BME280;9680;52.520;13.332;2022-10-23T04:36:08;101407.53;;;12.36;95.33
19096;BME280;9680;52.520;13.332;2022-10-23T04:38:34;101404.97;;;12.34;95.20
19096;BME280;9680;52.520;13.332;2022-10-23T04:41:00;101405.06;;;12.31;95.50
19096;BME280;9680;52.520;13.332;2022-10-23T04:43:26;101413.81;;;12.30;95.40
19096;BME280;9680;52.520;13.332;2022-10-23T04:45:52;101413.09;;;12.27;95.43
19096;BME280;9680;52.520;13.332;2022-10-23T04:48:18;101428.84;;;12.23;95.84
19096;BME280;9680;52.520;13.332;2022-10-23T04:51:16;101420.31;;;12.18;96.08
19096;BME280;9680;52.520;13.332;2022-10-23T04:54:07;101426.53;;;12.14;96.13
19096;BME280;9680;52.520;13.332;2022-10-23T04:56:55;101424.03;;;12.11;96.65
19096;BME280;9680;52.520;13.332;2022-10-23T04:59:22;101424.91;;;12.12;96.64
19096;BME280;9680;52.520;13.332;2022-10-23T05:01:47;101421.41;;;12.11;96.75
19096;BME280;9680;52.520;13.332;2022-10-23T05:04:14;101425.75;;;12.12;96.76
19096;BME280;9680;52.520;13.332;2022-10-23T05:07:00;101417.91;;;12.12;96.51
19096;BME280;9680;52.520;13.332;2022-10-23T05:09:57;101417.06;;;12.12;96.56
19096;BME280;9680;52.520;13.332;2022-10-23T05:12:48;101414.50;;;12.10;96.60
19096;BME280;9680;52.520;13.332;2022-10-23T05:15:14;101418.81;;;12.11;96.88
19096;BME280;9680;52.520;13.332;2022-10-23T05:17:42;101412.78;;;12.09;96.72
19096;BME280;9680;52.520;13.332;2022-10-23T05:20:16;101411.88;;;12.10;96.88
19096;BME280;9680;52.520;13.332;2022-10-23T05:22:44;101410.97;;;12.11;96.93
19096;BME280;9680;52.520;13.332;2022-10-23T05:25:11;101414.44;;;12.12;96.94
19096;BME280;9680;52.520;13.332;2022-10-23T05:27:40;101415.25;;;12.14;96.98
19096;BME280;9680;52.520;13.332;2022-10-23T05:30:09;101410.94;;;12.13;96.87
19096;BME280;9680;52.520;13.332;2022-10-23T05:32:36;101420.50;;;12.12;96.76
19096;BME280;9680;52.520;13.332;2022-10-23T05:35:10;101414.50;;;12.10;96.67
19096;BME280;9680;52.520;13.332;2022-10-23T05:37:39;101421.59;;;12.06;96.78
19096;BME280;9680;52.520;13.332;2022-10-23T05:40:11;101421.69;;;12.03;96.33
19096;BME280;9680;52.520;13.332;2022-10-23T05:42:39;101421.69;;;12.03;96.66
19096;BME280;9680;52.520;13.332;2022-10-23T05:45:05;101420.00;;;12.02;96.60
19096;BME280;9680;52.520;13.332;2022-10-23T05:47:44;101428.72;;;12.00;96.72
19096;BME280;9680;52.520;13.332;2022-10-23T05:50:22;101428.84;;;11.97;96.93
19096;BME280;9680;52.520;13.332;2022-10-23T05:53:06;101434.13;;;11.95;96.69
19096;BME280;9680;52.520;13.332;2022-10-23T05:55:52;101429.84;;;11.92;96.85
19096;BME280;9680;52.520;13.332;2022-10-23T05:58:49;101434.25;;;11.90;97.02
19096;BME280;9680;52.520;13.332;2022-10-23T06:01:24;101429.94;;;11.89;96.90
19096;BME280;9680;52.520;13.332;2022-10-23T06:04:05;101429.94;;;11.89;97.24
19096;BME280;9680;52.520;13.332;2022-10-23T06:06:53;101423.81;;;11.90;97.08
19096;BME280;9680;52.520;13.332;2022-10-23T06:09:19;101416.81;;;11.91;97.34
19096;BME280;9680;52.520;13.332;2022-10-23T06:11:46;101419.38;;;11.92;97.55
19096;BME280;9680;52.520;13.332;2022-10-23T06:14:16;101415.88;;;11.93;97.40
19096;BME280;9680;52.520;13.332;2022-10-23T06:16:42;101421.00;;;11.97;97.27
19096;BME280;9680;52.520;13.332;2022-10-23T06:19:11;101418.38;;;11.97;97.11
19096;BME280;9680;52.520;13.332;2022-10-23T06:21:39;101417.47;;;11.98;97.07
19096;BME280;9680;52.520;13.332;2022-10-23T06:24:06;101422.63;;;12.01;97.34
19096;BME280;9680;52.520;13.332;2022-10-23T06:26:46;101420.00;;;12.02;97.30
19096;BME280;9680;52.520;13.332;2022-10-23T06:29:19;101425.09;;;12.05;97.15
19096;BME280;9680;52.520;13.332;2022-10-23T06:31:46;101425.91;;;12.07;97.06
19096;BME280;9680;52.520;13.332;2022-10-23T06:34:12;101415.47;;;12.07;96.65
19096;BME280;9680;52.520;13.332;2022-10-23T06:36:38;101417.09;;;12.10;97.05
19096;BME280;9680;52.520;13.332;2022-10-23T06:39:42;101417.00;;;12.13;96.87
19096;BME280;9680;52.520;13.332;2022-10-23T06:42:21;101412.53;;;12.17;96.65
19096;BME280;9680;52.520;13.332;2022-10-23T06:44:52;101423.69;;;12.22;96.55
19096;BME280;9680;52.520;13.332;2022-10-23T06:47:50;101420.81;;;12.30;96.39
19096;BME280;9680;52.520;13.332;2022-10-23T06:50:36;101430.06;;;12.38;96.43
19096;BME280;9680;52.520;13.332;2022-10-23T06:53:23;101431.53;;;12.47;96.18
19096;BME280;9680;52.520;13.332;2022-10-23T06:56:45;101436.44;;;12.57;95.56
19096;BME280;9680;52.520;13.332;2022-10-23T06:59:11;101432.00;;;12.59;95.05
19096;BME280;9680;52.520;13.332;2022-10-23T07:01:38;101442.19;;;12.66;95.28
19096;BME280;9680;52.520;13.332;2022-10-23T07:04:05;101438.59;;;12.69;94.77
19096;BME280;9680;52.520;13.332;2022-10-23T07:06:30;101429.69;;;12.75;94.94
19096;BME280;9680;52.520;13.332;2022-10-23T07:08:58;101426.91;;;12.79;94.81
19096;BME280;9680;52.520;13.332;2022-10-23T07:11:42;101427.66;;;12.83;94.26
19096;BME280;9680;52.520;13.332;2022-10-23T07:14:08;101426.63;;;12.87;94.25
19096;BME280;9680;52.520;13.332;2022-10-23T07:16:34;101432.53;;;12.92;94.29
19096;BME280;9680;52.520;13.332;2022-10-23T07:19:02;101431.53;;;12.96;94.26
19096;BME280;9680;52.520;13.332;2022-10-23T07:21:30;101436.59;;;13.01;93.95
19096;BME280;9680;52.520;13.332;2022-10-23T07:24:15;101431.94;;;13.09;93.74
19096;BME280;9680;52.520;13.332;2022-10-23T07:26:43;101430.69;;;13.18;93.19
19096;BME280;9680;52.520;13.332;2022-10-23T07:29:10;101435.69;;;13.24;93.30
19096;BME280;9680;52.520;13.332;2022-10-23T07:31:36;101436.16;;;13.36;93.07
19096;BME280;9680;52.520;13.332;2022-10-23T07:34:28;101438.50;;;13.44;92.33
19096;BME280;9680;52.520;13.332;2022-10-23T07:37:15;101436.50;;;13.50;92.33
19096;BME280;9680;52.520;13.332;2022-10-23T07:39:41;101427.50;;;13.58;92.14
19096;BME280;9680;52.520;13.332;2022-10-23T07:42:08;101435.97;;;13.64;91.89
19096;BME280;9680;52.520;13.332;2022-10-23T07:44:39;101434.03;;;13.69;91.10
19096;BME280;9680;52.520;13.332;2022-10-23T07:47:04;101430.38;;;13.74;91.18
19096;BME280;9680;52.520;13.332;2022-10-23T07:49:31;101430.03;;;13.81;90.83
19096;BME280;9680;52.520;13.332;2022-10-23T07:51:57;101434.06;;;13.90;90.86
19096;BME280;9680;52.520;13.332;2022-10-23T07:54:27;101437.28;;;13.97;90.82
19096;BME280;9680;52.520;13.332;2022-10-23T07:57:17;101430.63;;;14.10;90.03
19096;BME280;9680;52.520;13.332;2022-10-23T07:59:52;101428.41;;;14.22;89.57
19096;BME280;9680;52.520;13.332;2022-10-23T08:02:20;101422.56;;;14.36;89.27
19096;BME280;9680;52.520;13.332;2022-10-23T08:04:50;101418.50;;;14.49;88.71
19096;BME280;9680;52.520;13.332;2022-10-23T08:07:23;101418.03;;;14.60;88.02
19096;BME280;9680;52.520;13.332;2022-10-23T08:09:55;101416.91;;;14.66;87.64
19096;BME280;9680;52.520;13.332;2022-10-23T08:12:23;101420.97;;;14.73;87.34
19096;BME280;9680;52.520;13.332;2022-10-23T08:14:48;101420.69;;;14.79;86.79
19096;BME280;9680;52.520;13.332;2022-10-23T08:17:14;101408.22;;;14.84;86.78
19096;BME280;9680;52.520;13.332;2022-10-23T08:19:58;101416.69;;;14.91;86.45
19096;BME280;9680;52.520;13.332;2022-10-23T08:22:27;101406.78;;;14.98;85.60
19096;BME280;9680;52.520;13.332;2022-10-23T08:24:53;101412.66;;;15.03;85.77
19096;BME280;9680;52.520;13.332;2022-10-23T08:27:18;101415.91;;;15.08;85.34
19096;BME280;9680;52.520;13.332;2022-10-23T08:29:46;101422.78;;;15.11;85.33
19096;BME280;9680;52.520;13.332;2022-10-23T08:32:11;101421.78;;;15.13;84.72
19096;BME280;9680;52.520;13.332;2022-10-23T08:34:47;101418.25;;;15.14;84.38
19096;BME280;9680;52.520;13.332;2022-10-23T08:37:12;101413.78;;;15.17;84.55
19096;BME280;9680;52.520;13.332;2022-10-23T08:39:38;101415.47;;;15.18;84.11
19096;BME280;9680;52.520;13.332;2022-10-23T08:42:29;101412.78;;;15.19;84.39
19096;BME280;9680;52.520;13.332;2022-10-23T08:47:38;101414.22;;;15.26;84.00
19096;BME280;9680;52.520;13.332;2022-10-23T08:50:40;101419.56;;;15.23;83.80
19096;BME280;9680;52.520;13.332;2022-10-23T08:53:21;101409.78;;;15.27;83.68
19096;BME280;9680;52.520;13.332;2022-10-23T08:56:08;101412.22;;;15.32;84.01
19096;BME280;9680;52.520;13.332;2022-10-23T08:58:47;101403.28;;;15.36;83.76
19096;BME280;9680;52.520;13.332;2022-10-23T09:01:36;101402.09;;;15.41;83.33
19096;BME280;9680;52.520;13.332;2022-10-23T09:04:19;101409.69;;;15.48;83.38
19096;BME280;9680;52.520;13.332;2022-10-23T09:11:19;101402.44;;;15.53;82.95
19096;BME280;9680;52.520;13.332;2022-10-23T09:18:58;101397.16;;;15.72;82.12
19096;BME280;9680;52.520;13.332;2022-10-23T09:21:38;101396.63;;;15.83;82.15
19096;BME280;9680;52.520;13.332;2022-10-23T09:24:19;101389.25;;;15.91;81.64
19096;BME280;9680;52.520;13.332;2022-10-23T09:26:56;101387.78;;;16.03;81.27
19096;BME280;9680;52.520;13.332;2022-10-23T09:29:35;101398.81;;;16.10;81.16
19096;BME280;9680;52.520;13.332;2022-10-23T09:35:30;101391.88;;;16.26;79.96
19096;BME280;9680;52.520;13.332;2022-10-23T09:38:04;101387.81;;;16.37;79.15
19096;BME280;9680;52.520;13.332;2022-10-23T09:40:39;101390.97;;;16.43;78.46
19096;BME280;9680;52.520;13.332;2022-10-23T09:43:20;101392.81;;;16.59;78.30
19096;BME280;9680;52.520;13.332;2022-10-23T09:46:01;101396.38;;;16.74;77.67
19096;BME280;9680;52.520;13.332;2022-10-23T09:48:55;101389.50;;;16.87;77.38
19096;BME280;9680;52.520;13.332;2022-10-23T09:52:31;101384.47;;;17.00;76.40
19096;BME280;9680;52.520;13.332;2022-10-23T09:55:21;101387.63;;;17.07;75.51
19096;BME280;9680;52.520;13.332;2022-10-23T09:57:57;101384.66;;;17.13;75.08
19096;BME280;9680;52.520;13.332;2022-10-23T10:00:49;101387.94;;;17.17;75.06
19096;BME280;9680;52.520;13.332;2022-10-23T10:03:48;101377.59;;;17.14;74.78
19096;BME280;9680;52.520;13.332;2022-10-23T10:06:37;101377.19;;;17.22;74.62
19096;BME280;9680;52.520;13.332;2022-10-23T10:09:15;101369.88;;;17.27;74.29
19096;BME280;9680;52.520;13.332;2022-10-23T10:11:50;101368.00;;;17.29;73.83
19096;BME280;9680;52.520;13.332;2022-10-23T10:17:12;101375.78;;;17.46;73.21
19096;BME280;9680;52.520;13.332;2022-10-23T10:26:16;101355.28;;;17.82;72.26
19096;BME280;9680;52.520;13.332;2022-10-23T10:31:42;101356.28;;;17.96;71.52
19096;BME280;9680;52.520;13.332;2022-10-23T10:39:15;101349.25;;;18.11;70.91
19096;BME280;9680;52.520;13.332;2022-10-23T10:42:03;101342.03;;;18.14;70.21
19096;BME280;9680;52.520;13.332;2022-10-23T10:51:33;101345.41;;;18.45;70.03
19096;BME280;9680;52.520;13.332;2022-10-23T10:57:26;101332.13;;;18.61;69.11
19096;BME280;9680;52.520;13.332;2022-10-23T10:59:59;101338.63;;;18.70;68.91
19096;BME280;9680;52.520;13.332;2022-10-23T11:07:49;101310.84;;;18.50;69.57
19096;BME280;9680;52.520;13.332;2022-10-23T11:10:18;101318.53;;;18.68;69.83
19096;BME280;9680;52.520;13.332;2022-10-23T11:12:47;101307.75;;;18.85;69.50
19096;BME280;9680;52.520;13.332;2022-10-23T11:15:20;101300.28;;;19.06;68.82
19096;BME280;9680;52.520;13.332;2022-10-23T11:17:50;101295.69;;;19.23;68.36
19096;BME280;9680;52.520;13.332;2022-10-23T11:28:50;101281.16;;;19.43;67.27
19096;BME280;9680;52.520;13.332;2022-10-23T11:31:37;101281.34;;;19.40;67.58
19096;BME280;9680;52.520;13.332;2022-10-23T11:36:59;101267.84;;;19.45;67.51
19096;BME280;9680;52.520;13.332;2022-10-23T11:39:34;101266.38;;;19.41;67.61
19096;BME280;9680;52.520;13.332;2022-10-23T11:47:33;101258.53;;;19.26;66.97
19096;BME280;9680;52.520;13.332;2022-10-23T11:52:39;101246.25;;;19.25;67.07
19096;BME280;9680;52.520;13.332;2022-10-23T11:55:31;101242.09;;;19.21;67.24
19096;BME280;9680;52.520;13.332;2022-10-23T12:00:37;101225.53;;;19.19;67.72
19096;BME280;9680;52.520;13.332;2022-10-23T12:03:16;101223.41;;;19.11;67.57
19096;BME280;9680;52.520;13.332;2022-10-23T12:05:59;101229.13;;;19.18;67.88
19096;BME280;9680;52.520;13.332;2022-10-23T12:08:42;101233.69;;;19.29;67.81
19096;BME280;9680;52.520;13.332;2022-10-23T12:12:58;101227.44;;;19.30;66.85
19096;BME280;9680;52.520;13.332;2022-10-23T12:15:21;101221.88;;;19.34;67.18
19096;BME280;9680;52.520;13.332;2022-10-23T12:18:09;101227.16;;;19.34;66.99
19096;BME280;9680;52.520;13.332;2022-10-23T12:20:51;101216.47;;;19.36;67.12
19096;BME280;9680;52.520;13.332;2022-10-23T12:27:02;101204.22;;;19.48;66.61
19096;BME280;9680;52.520;13.332;2022-10-23T12:32:58;101196.41;;;19.46;66.77
19096;BME280;9680;52.520;13.332;2022-10-23T12:39:30;101197.78;;;19.26;66.73
19096;BME280;9680;52.520;13.332;2022-10-23T12:42:22;101193.00;;;19.18;66.94
19096;BME280;9680;52.520;13.332;2022-10-23T12:45:02;101200.19;;;19.16;67.08
19096;BME280;9680;52.520;13.332;2022-10-23T12:47:31;101189.63;;;19.16;67.11
19096;BME280;9680;52.520;13.332;2022-10-23T12:49:58;101185.09;;;19.18;67.33
19096;BME280;9680;52.520;13.332;2022-10-23T12:52:26;101184.13;;;19.19;67.38
19096;BME280;9680;52.520;13.332;2022-10-23T12:54:52;101179.59;;;19.21;67.12
19096;BME280;9680;52.520;13.332;2022-10-23T12:57:26;101173.38;;;19.23;66.83
19096;BME280;9680;52.520;13.332;2022-10-23T13:00:01;101170.31;;;19.29;66.97
19096;BME280;9680;52.520;13.332;2022-10-23T13:02:39;101166.41;;;19.34;66.17
19096;BME280;9680;52.520;13.332;2022-10-23T13:05:33;101161.97;;;19.35;66.50
19096;BME280;9680;52.520;13.332;2022-10-23T13:08:03;101152.34;;;19.34;66.20
19096;BME280;9680;52.520;13.332;2022-10-23T13:10:43;101138.19;;;19.35;66.05
19096;BME280;9680;52.520;13.332;2022-10-23T13:13:11;101136.50;;;19.34;66.35
19096;BME280;9680;52.520;13.332;2022-10-23T13:15:41;101130.16;;;19.37;66.14
19096;BME280;9680;52.520;13.332;2022-10-23T13:18:10;101128.25;;;19.39;66.04
19096;BME280;9680;52.520;13.332;2022-10-23T13:24:44;101117.38;;;19.30;66.19
19096;BME280;9680;52.520;13.332;2022-10-23T13:31:42;101124.16;;;19.34;66.59
19096;BME280;9680;52.520;13.332;2022-10-23T13:34:53;101131.53;;;19.42;66.82
19096;BME280;9680;52.520;13.332;2022-10-23T13:37:43;101122.13;;;19.51;66.53
19096;BME280;9680;52.520;13.332;2022-10-23T13:41:21;101118.09;;;19.58;66.72
19096;BME280;9680;52.520;13.332;2022-10-23T13:44:28;101112.06;;;19.56;66.71
19096;BME280;9680;52.520;13.332;2022-10-23T13:48:07;101110.38;;;19.42;66.83
19096;BME280;9680;52.520;13.332;2022-10-23T13:51:32;101106.81;;;19.17;66.88
19096;BME280;9680;52.520;13.332;2022-10-23T13:54:18;101107.13;;;19.00;67.67
19096;BME280;9680;52.520;13.332;2022-10-23T13:57:15;101110.00;;;18.82;68.26
19096;BME280;9680;52.520;13.332;2022-10-23T14:00:53;101104.19;;;18.64;69.10
19096;BME280;9680;52.520;13.332;2022-10-23T14:04:04;101109.13;;;18.56;69.59
19096;BME280;9680;52.520;13.332;2022-10-23T14:07:03;101092.66;;;18.52;70.04
19096;BME280;9680;52.520;13.332;2022-10-23T14:13:47;101099.81;;;18.50;70.43
19096;BME280;9680;52.520;13.332;2022-10-23T14:20:46;101095.56;;;18.34;70.72
19096;BME280;9680;52.520;13.332;2022-10-23T14:23:12;101091.22;;;18.33;70.74
19096;BME280;9680;52.520;13.332;2022-10-23T14:25:49;101090.16;;;18.23;71.14
19096;BME280;9680;52.520;13.332;2022-10-23T14:28:18;101098.22;;;18.20;71.22
19096;BME280;9680;52.520;13.332;2022-10-23T14:30:45;101087.78;;;18.18;71.40
19096;BME280;9680;52.520;13.332;2022-10-23T14:33:11;101083.34;;;18.19;71.49
19096;BME280;9680;52.520;13.332;2022-10-23T14:36:06;101081.66;;;18.18;71.48
19096;BME280;9680;52.520;13.332;2022-10-23T14:38:37;101079.22;;;18.15;71.25
19096;BME280;9680;52.520;13.332;2022-10-23T14:41:11;101082.06;;;18.12;71.62
19096;BME280;9680;52.520;13.332;2022-10-23T14:43:37;101078.69;;;18.10;71.72
19096;BME280;9680;52.520;13.332;2022-10-23T14:46:14;101066.56;;;18.07;71.65
19096;BME280;9680;52.520;13.332;2022-10-23T14:48:46;101066.56;;;18.07;71.66
19096;BME280;9680;52.520;13.332;2022-10-23T14:51:19;101069.28;;;18.05;71.74
19096;BME280;9680;52.520;13.332;2022-10-23T14:53:48;101070.41;;;18.01;71.80
19096;BME280;9680;52.520;13.332;2022-10-23T14:56:18;101070.78;;;17.95;71.93
19096;BME280;9680;52.520;13.332;2022-10-23T14:58:46;101063.06;;;17.92;72.05
19096;BME280;9680;52.520;13.332;2022-10-23T15:01:12;101058.94;;;17.88;72.33
19096;BME280;9680;52.520;13.332;2022-10-23T15:03:45;101059.34;;;17.82;72.50
19096;BME280;9680;52.520;13.332;2022-10-23T15:06:16;101061.31;;;17.78;72.44
19096;BME280;9680;52.520;13.332;2022-10-23T15:08:44;101068.47;;;17.76;72.84
19096;BME280;9680;52.520;13.332;2022-10-23T15:11:58;101057.50;;;17.69;72.92
19096;BME280;9680;52.520;13.332;2022-10-23T15:14:28;101051.66;;;17.64;73.35
19096;BME280;9680;52.520;13.332;2022-10-23T15:17:06;101045.72;;;17.60;72.85
19096;BME280;9680;52.520;13.332;2022-10-23T15:19:44;101046.88;;;17.56;73.65
19096;BME280;9680;52.520;13.332;2022-10-23T15:22:13;101034.84;;;17.52;73.42
19096;BME280;9680;52.520;13.332;2022-10-23T15:24:44;101036.06;;;17.46;73.79
19096;BME280;9680;52.520;13.332;2022-10-23T15:27:13;101032.97;;;17.40;74.15
19096;BME280;9680;52.520;13.332;2022-10-23T15:29:50;101025.53;;;17.32;74.31
19096;BME280;9680;52.520;13.332;2022-10-23T15:33:10;101020.00;;;17.22;74.99
19096;BME280;9680;52.520;13.332;2022-10-23T15:35:48;101013.41;;;17.15;75.18
19096;BME280;9680;52.520;13.332;2022-10-23T15:38:27;101014.84;;;17.06;75.44
19096;BME280;9680;52.520;13.332;2022-10-23T15:41:12;101023.34;;;16.95;75.82